createdAt,value
2022-09-02T00:01:38.061Z,1.77
2022-09-02T00:04:06.705Z,1.67
2022-09-02T00:06:33.881Z,2.03
2022-09-02T00:11:45.190Z,1.77
2022-09-02T00:17:00.744Z,3.03
2022-09-02T00:22:12.143Z,2.73
2022-09-02T00:27:23.324Z,2.50
2022-09-02T00:29:50.240Z,3.00
2022-09-02T00:32:17.176Z,2.70
2022-09-02T00:34:43.896Z,2.50
2022-09-02T00:37:10.766Z,2.20
2022-09-02T00:39:37.430Z,2.20
2022-09-02T00:42:04.259Z,2.47
2022-09-02T00:44:31.042Z,2.00
2022-09-02T00:46:57.772Z,2.50
2022-09-02T00:49:25.665Z,2.50
2022-09-02T00:52:11.182Z,2.37
2022-09-02T00:54:41.979Z,2.20
2022-09-02T00:57:09.807Z,1.87
2022-09-02T00:59:39.536Z,2.03
2022-09-02T01:02:09.793Z,2.00
2022-09-02T01:04:37.017Z,2.03
2022-09-02T01:07:04.559Z,2.10
2022-09-02T01:09:33.588Z,2.00
2022-09-02T01:12:03.583Z,2.20
2022-09-02T01:17:17.238Z,2.57
2022-09-02T01:22:30.685Z,1.87
2022-09-02T01:24:57.978Z,2.03
2022-09-02T01:27:24.966Z,2.40
2022-09-02T01:29:52.354Z,2.53
2022-09-02T01:32:19.990Z,1.90
2022-09-02T01:34:47.336Z,1.80
2022-09-02T01:37:14.132Z,2.00
2022-09-02T01:42:25.327Z,1.60
2022-09-02T01:47:37.763Z,1.97
2022-09-02T01:52:52.648Z,1.47
2022-09-02T01:58:04.295Z,1.60
2022-09-02T02:00:31.773Z,1.80
2022-09-02T02:02:58.816Z,2.47
2022-09-02T02:05:25.597Z,2.30
2022-09-02T02:07:53.356Z,1.93
2022-09-02T02:10:20.499Z,2.30
2022-09-02T02:12:48.356Z,2.17
2022-09-02T02:15:18.116Z,2.20
2022-09-02T02:17:44.936Z,1.63
2022-09-02T02:20:12.200Z,1.80
2022-09-02T02:25:23.724Z,1.67
2022-09-02T02:30:37.600Z,1.63
2022-09-02T02:33:05.767Z,1.80
2022-09-02T02:35:32.643Z,1.87
2022-09-02T02:37:59.361Z,1.67
2022-09-02T02:40:30.545Z,1.40
2022-09-02T02:42:57.781Z,1.67
2022-09-02T02:45:25.038Z,1.70
2022-09-02T02:47:52.502Z,1.57
2022-09-02T02:50:21.844Z,1.70
2022-09-02T02:52:49.194Z,1.40
2022-09-02T02:55:17.910Z,1.60
2022-09-02T02:57:44.765Z,1.60
2022-09-02T03:00:13.454Z,1.47
2022-09-02T03:05:26.841Z,1.50
2022-09-02T03:07:53.785Z,1.50
2022-09-02T03:10:22.303Z,1.13
2022-09-02T03:12:49.236Z,1.20
2022-09-02T03:15:18.457Z,1.20
2022-09-02T03:17:47.248Z,1.23
2022-09-02T03:20:15.887Z,2.10
2022-09-02T03:25:36.142Z,1.80
2022-09-02T03:28:17.817Z,1.60
2022-09-02T03:30:46.426Z,1.83
2022-09-02T03:33:17.736Z,2.10
2022-09-02T03:35:45.691Z,1.90
2022-09-02T03:38:13.055Z,1.80
2022-09-02T03:40:40.289Z,1.93
2022-09-02T03:45:51.898Z,2.13
2022-09-02T03:48:18.801Z,2.60
2022-09-02T03:50:47.230Z,2.23
2022-09-02T03:56:06.664Z,2.30
2022-09-02T03:58:33.871Z,2.97
2022-09-02T04:01:01.908Z,2.07
2022-09-02T04:03:28.797Z,2.07
2022-09-02T04:05:55.633Z,2.30
2022-09-02T04:08:24.881Z,1.90
2022-09-02T04:10:53.474Z,1.93
2022-09-02T04:16:10.583Z,1.77
2022-09-02T04:18:38.246Z,2.07
2022-09-02T04:21:05.168Z,2.10
2022-09-02T04:23:33.716Z,2.03
2022-09-02T04:26:04.094Z,1.87
2022-09-02T04:28:30.864Z,2.20
2022-09-02T04:30:57.611Z,2.07
2022-09-02T04:33:24.988Z,2.90
2022-09-02T04:35:52.581Z,2.63
2022-09-02T04:38:20.689Z,2.40
2022-09-02T04:43:32.357Z,1.83
2022-09-02T04:48:44.727Z,2.07
2022-09-02T04:54:06.948Z,1.80
2022-09-02T04:56:35.427Z,2.23
2022-09-02T04:59:04.024Z,2.10
2022-09-02T05:01:32.758Z,1.90
2022-09-02T05:04:10.837Z,1.77
2022-09-02T05:06:44.915Z,1.93
2022-09-02T05:09:17.384Z,1.60
2022-09-02T05:11:49.164Z,1.90
2022-09-02T05:14:18.055Z,1.80
2022-09-02T05:16:45.812Z,2.30
2022-09-02T05:19:15.613Z,1.77
2022-09-02T05:21:47.489Z,1.80
2022-09-02T05:24:26.402Z,2.03
2022-09-02T05:26:55.232Z,1.60
2022-09-02T05:29:23.839Z,1.90
2022-09-02T05:31:51.737Z,2.27
2022-09-02T05:37:05.479Z,2.30
2022-09-02T05:39:34.886Z,2.70
2022-09-02T05:42:01.845Z,2.10
2022-09-02T05:44:31.283Z,2.20
2022-09-02T05:46:59.684Z,2.23
2022-09-02T05:49:27.770Z,2.30
2022-09-02T05:52:00.165Z,2.60
2022-09-02T05:54:33.327Z,2.03
2022-09-02T05:59:57.536Z,1.67
2022-09-02T06:02:40.258Z,1.50
2022-09-02T06:05:12.216Z,1.90
2022-09-02T06:07:44.113Z,3.00
2022-09-02T06:10:11.767Z,2.80
2022-09-02T06:12:42.559Z,2.63
2022-09-02T06:15:10.907Z,2.20
2022-09-02T06:17:39.905Z,2.33
2022-09-02T06:20:09.188Z,2.30
2022-09-02T06:25:23.732Z,2.37
2022-09-02T06:27:51.984Z,2.10
2022-09-02T06:30:19.387Z,1.30
2022-09-02T06:32:50.425Z,1.50
2022-09-02T06:35:19.972Z,2.00
2022-09-02T06:37:47.061Z,1.63
2022-09-02T06:40:14.827Z,1.57
2022-09-02T06:45:46.048Z,1.00
2022-09-02T06:50:58.117Z,2.60
2022-09-02T06:53:25.306Z,0.90
2022-09-02T06:55:52.500Z,0.80
2022-09-02T06:58:20.474Z,0.93
2022-09-02T07:00:47.686Z,1.60
2022-09-02T07:03:33.494Z,1.97
2022-09-02T07:08:51.648Z,1.50
2022-09-02T07:11:22.812Z,1.20
2022-09-02T07:13:51.660Z,1.37
2022-09-02T07:16:26.838Z,1.17
2022-09-02T07:18:56.855Z,1.27
2022-09-02T07:21:24.733Z,0.80
2022-09-02T07:23:53.156Z,0.70
2022-09-02T07:26:19.915Z,0.70
2022-09-02T07:28:47.426Z,0.67
2022-09-02T07:31:14.984Z,0.50
2022-09-02T07:33:45.026Z,0.50
2022-09-02T07:39:02.337Z,0.70
2022-09-02T07:41:29.629Z,0.60
2022-09-02T07:43:59.665Z,0.60
2022-09-02T07:46:31.609Z,0.40
2022-09-02T07:48:59.372Z,0.70
2022-09-02T07:51:30.822Z,0.50
2022-09-02T07:56:45.622Z,0.50
2022-09-02T08:01:59.432Z,0.60
2022-09-02T08:04:26.798Z,0.93
2022-09-02T08:06:54.205Z,0.50
2022-09-02T08:09:21.193Z,0.50
2022-09-02T08:11:48.569Z,0.40
2022-09-02T08:14:18.173Z,0.50
2022-09-02T08:16:45.510Z,0.57
2022-09-02T08:19:12.591Z,0.90
2022-09-02T08:21:39.672Z,0.90
2022-09-02T08:24:06.659Z,0.70
2022-09-02T08:29:23.320Z,0.80
2022-09-02T08:31:53.513Z,0.50
2022-09-02T08:34:21.516Z,0.50
2022-09-02T08:36:56.433Z,0.40
2022-09-02T08:42:05.743Z,0.40
2022-09-02T08:47:18.757Z,0.53
2022-09-02T08:49:47.012Z,0.50
2022-09-02T08:52:17.857Z,0.37
2022-09-02T08:54:49.365Z,0.50
2022-09-02T08:57:16.335Z,0.60
2022-09-02T08:59:44.289Z,0.73
2022-09-02T09:02:20.622Z,0.40
2022-09-02T09:05:06.297Z,0.33
2022-09-02T09:07:52.179Z,0.40
2022-09-02T09:10:21.643Z,0.30
2022-09-02T09:13:08.409Z,0.30
2022-09-02T09:15:56.342Z,0.30
2022-09-02T09:18:31.790Z,0.40
2022-09-02T09:20:58.703Z,0.47
2022-09-02T09:26:19.299Z,0.53
2022-09-02T09:28:49.616Z,0.50
2022-09-02T09:31:25.096Z,0.50
2022-09-02T09:36:42.682Z,0.50
2022-09-02T09:39:20.050Z,0.70
2022-09-02T09:41:47.159Z,0.50
2022-09-02T09:44:29.527Z,0.40
2022-09-02T09:47:07.094Z,0.60
2022-09-02T09:49:33.889Z,0.50
2022-09-02T09:52:00.855Z,0.30
2022-09-02T09:54:28.030Z,0.30
2022-09-02T09:56:55.369Z,0.30
2022-09-02T09:59:57.078Z,0.50
2022-09-02T10:05:26.224Z,0.50
2022-09-02T10:07:54.303Z,0.50
2022-09-02T10:10:22.201Z,0.27
2022-09-02T10:12:49.838Z,0.43
2022-09-02T10:15:17.499Z,0.43
2022-09-02T10:17:47.409Z,0.50
2022-09-02T10:20:31.697Z,0.40
2022-09-02T10:23:14.004Z,0.47
2022-09-02T10:25:59.736Z,0.97
2022-09-02T10:28:46.062Z,0.60
2022-09-02T10:31:19.122Z,0.70
2022-09-02T10:34:04.832Z,0.70
2022-09-02T10:36:38.033Z,0.63
2022-09-02T10:39:16.378Z,0.60
2022-09-02T10:44:28.173Z,0.27
2022-09-02T10:47:07.028Z,1.00
2022-09-02T10:49:34.141Z,0.50
2022-09-02T10:52:15.910Z,0.40
2022-09-02T10:54:52.474Z,0.50
2022-09-02T10:57:45.093Z,0.40
2022-09-02T11:00:12.210Z,0.40
2022-09-02T11:02:41.432Z,0.30
2022-09-02T11:08:29.560Z,0.60
2022-09-02T11:13:49.973Z,0.37
2022-09-02T11:19:05.605Z,0.30
2022-09-02T11:21:47.773Z,0.50
2022-09-02T11:24:33.479Z,0.40
2022-09-02T11:29:59.064Z,0.40
2022-09-02T11:32:26.468Z,0.50
2022-09-02T11:34:55.002Z,0.30
2022-09-02T11:37:42.761Z,0.40
2022-09-02T11:40:33.131Z,0.40
2022-09-02T11:43:21.808Z,0.30
2022-09-02T11:45:49.228Z,0.37
2022-09-02T11:48:36.704Z,0.60
2022-09-02T11:51:09.445Z,0.20
2022-09-02T11:53:42.847Z,0.20
2022-09-02T11:56:17.448Z,0.20
2022-09-02T12:01:34.795Z,0.30
2022-09-02T12:07:10.256Z,0.87
2022-09-02T12:09:45.999Z,0.40
2022-09-02T12:12:31.854Z,0.27
2022-09-02T12:14:58.585Z,0.30
2022-09-02T12:17:38.094Z,0.30
2022-09-02T12:20:08.038Z,0.20
2022-09-02T12:22:38.808Z,0.30
2022-09-02T12:28:25.808Z,0.43
2022-09-02T12:30:56.523Z,0.27
2022-09-02T12:33:33.169Z,0.30
2022-09-02T12:38:45.250Z,0.40
2022-09-02T12:41:15.145Z,0.20
2022-09-02T12:44:00.929Z,0.47
2022-09-02T12:46:28.813Z,0.23
2022-09-02T12:49:18.341Z,0.30
2022-09-02T12:52:02.672Z,0.40
2022-09-02T12:54:32.319Z,0.30
2022-09-02T12:57:00.133Z,0.20
2022-09-02T12:59:31.398Z,0.20
2022-09-02T13:02:04.843Z,0.40
2022-09-02T13:04:36.383Z,0.30
2022-09-02T13:07:15.657Z,0.30
2022-09-02T13:09:51.850Z,0.40
2022-09-02T13:12:34.306Z,0.20
2022-09-02T13:15:01.173Z,0.30
2022-09-02T13:17:37.134Z,0.23
2022-09-02T13:20:20.540Z,0.40
2022-09-02T13:22:47.645Z,0.30
2022-09-02T13:25:22.572Z,0.50
2022-09-02T13:28:02.120Z,0.40
2022-09-02T13:33:33.593Z,0.33
2022-09-02T13:38:45.216Z,0.30
2022-09-02T13:41:12.055Z,1.00
2022-09-02T13:43:38.921Z,0.30
2022-09-02T13:46:05.688Z,0.17
2022-09-02T13:48:32.657Z,0.33
2022-09-02T13:51:00.434Z,0.30
2022-09-02T13:54:05.016Z,0.60
2022-09-02T13:58:59.983Z,0.30
2022-09-02T14:04:15.726Z,0.30
2022-09-02T14:06:43.526Z,1.00
2022-09-02T14:09:24.698Z,0.27
2022-09-02T14:11:51.530Z,0.30
2022-09-02T14:14:19.934Z,0.30
2022-09-02T14:16:46.720Z,0.30
2022-09-02T14:19:16.592Z,0.30
2022-09-02T14:21:50.068Z,0.27
2022-09-02T14:24:20.259Z,0.30
2022-09-02T14:26:48.119Z,0.20
2022-09-02T14:29:16.209Z,0.20
2022-09-02T14:31:43.424Z,0.20
2022-09-02T14:34:28.965Z,0.20
2022-09-02T14:39:52.957Z,0.23
2022-09-02T14:42:19.960Z,0.20
2022-09-02T14:44:46.843Z,0.30
2022-09-02T14:47:15.412Z,0.30
2022-09-02T14:52:34.026Z,0.30
2022-09-02T14:55:00.869Z,0.30
2022-09-02T14:57:33.124Z,0.30
2022-09-02T15:00:01.497Z,0.10
2022-09-02T15:02:28.293Z,0.30
2022-09-02T15:04:55.807Z,0.20
2022-09-02T15:07:22.981Z,0.30
2022-09-02T15:09:53.530Z,0.30
2022-09-02T15:12:24.717Z,0.30
2022-09-02T15:14:52.009Z,0.27
2022-09-02T15:17:18.944Z,0.50
2022-09-02T15:19:46.311Z,0.30
2022-09-02T15:22:13.063Z,0.60
2022-09-02T15:24:40.147Z,0.40
2022-09-02T15:27:07.123Z,0.40
2022-09-02T15:29:33.910Z,0.30
2022-09-02T15:32:00.781Z,0.30
2022-09-02T15:37:13.790Z,0.20
2022-09-02T15:39:41.105Z,0.20
2022-09-02T15:42:08.092Z,0.20
2022-09-02T15:44:35.132Z,0.50
2022-09-02T15:47:03.110Z,0.30
2022-09-02T15:49:30.776Z,0.30
2022-09-02T15:51:59.351Z,0.30
2022-09-02T15:54:26.366Z,0.20
2022-09-02T15:56:56.724Z,0.37
2022-09-02T15:59:23.483Z,0.30
2022-09-02T16:01:56.978Z,0.20
2022-09-02T16:04:23.999Z,0.20
2022-09-02T16:06:54.795Z,0.30
2022-09-02T16:09:22.123Z,0.30
2022-09-02T16:11:53.609Z,0.27
2022-09-02T16:14:21.269Z,0.20
2022-09-02T16:16:49.559Z,0.17
2022-09-02T16:19:16.806Z,0.30
2022-09-02T16:21:43.676Z,0.30
2022-09-02T16:24:10.717Z,0.30
2022-09-02T16:26:38.371Z,0.30
2022-09-02T16:29:06.587Z,0.20
2022-09-02T16:34:21.212Z,0.20
2022-09-02T16:36:50.977Z,0.30
2022-09-02T16:39:18.459Z,0.30
2022-09-02T16:41:49.199Z,0.40
2022-09-02T16:44:17.198Z,0.40
2022-09-02T16:46:45.409Z,0.30
2022-09-02T16:49:13.549Z,0.20
2022-09-02T16:51:41.185Z,0.20
2022-09-02T16:54:08.594Z,0.20
2022-09-02T16:56:36.762Z,0.30
2022-09-02T16:59:05.191Z,0.30
2022-09-02T17:01:33.996Z,0.50
2022-09-02T17:04:01.387Z,0.30
2022-09-02T17:06:32.238Z,0.30
2022-09-02T17:08:59.169Z,0.50
2022-09-02T17:11:31.872Z,0.40
2022-09-02T17:13:58.823Z,0.40
2022-09-02T17:16:27.244Z,0.40
2022-09-02T17:18:54.250Z,0.70
2022-09-02T17:21:30.791Z,0.50
2022-09-02T17:23:57.749Z,0.50
2022-09-02T17:26:26.530Z,0.50
2022-09-02T17:28:55.648Z,0.33
2022-09-02T17:34:08.306Z,0.43
2022-09-02T17:39:20.363Z,0.80
2022-09-02T17:41:57.553Z,0.77
2022-09-02T17:44:24.697Z,1.00
2022-09-02T17:46:51.465Z,1.40
2022-09-02T17:49:18.730Z,2.73
2022-09-02T17:51:46.670Z,1.80
2022-09-02T17:54:13.820Z,0.83
2022-09-02T17:59:46.091Z,0.97
2022-09-02T18:02:15.978Z,0.97
2022-09-02T18:04:48.605Z,1.10
2022-09-02T18:10:07.981Z,0.73
2022-09-02T18:15:20.437Z,1.13
2022-09-02T18:20:43.726Z,1.10
2022-09-02T18:23:14.295Z,1.13
2022-09-02T18:25:50.758Z,1.40
2022-09-02T18:28:43.848Z,1.50
2022-09-02T18:31:16.735Z,1.23
2022-09-02T18:33:43.567Z,1.67
2022-09-02T18:36:29.178Z,1.70
2022-09-02T18:42:14.817Z,2.60
2022-09-02T18:44:47.754Z,0.90
2022-09-02T18:47:22.591Z,1.03
2022-09-02T18:49:50.335Z,1.00
2022-09-02T18:52:21.083Z,1.10
2022-09-02T18:54:54.682Z,1.10
2022-09-02T18:57:38.893Z,1.53
2022-09-02T19:00:07.459Z,1.30
2022-09-02T19:02:54.818Z,1.10
2022-09-02T19:05:23.742Z,1.40
2022-09-02T19:08:18.798Z,0.90
2022-09-02T19:10:46.802Z,1.30
2022-09-02T19:13:13.596Z,1.23
2022-09-02T19:15:41.139Z,1.90
2022-09-02T19:18:08.153Z,1.20
2022-09-02T19:20:35.636Z,1.80
2022-09-02T19:23:04.272Z,1.70
2022-09-02T19:28:19.351Z,1.27
2022-09-02T19:33:31.565Z,2.00
2022-09-02T19:35:59.348Z,1.57
2022-09-02T19:38:27.041Z,1.20
2022-09-02T19:40:55.159Z,1.20
2022-09-02T19:43:24.457Z,1.60
2022-09-02T19:45:51.648Z,1.80
2022-09-02T19:48:18.915Z,1.77
2022-09-02T19:50:46.483Z,1.63
2022-09-02T19:53:20.205Z,1.80
2022-09-02T19:55:51.366Z,2.03
2022-09-02T19:58:18.284Z,2.00
2022-09-02T20:00:45.317Z,1.80
2022-09-02T20:03:12.980Z,1.77
2022-09-02T20:05:40.487Z,1.70
2022-09-02T20:08:11.080Z,1.77
2022-09-02T20:10:41.895Z,1.97
2022-09-02T20:13:12.680Z,1.80
2022-09-02T20:15:39.742Z,1.90
2022-09-02T20:20:58.127Z,2.10
2022-09-02T20:23:26.496Z,1.83
2022-09-02T20:26:03.488Z,2.10
2022-09-02T20:28:37.137Z,1.80
2022-09-02T20:31:22.365Z,1.90
2022-09-02T20:34:10.779Z,2.37
2022-09-02T20:36:42.972Z,2.30
2022-09-02T20:39:28.843Z,2.03
2022-09-02T20:42:02.578Z,1.90
2022-09-02T20:44:38.830Z,2.20
2022-09-02T20:47:20.226Z,1.83
2022-09-02T20:49:56.104Z,2.00
2022-09-02T20:52:34.900Z,1.80
2022-09-02T20:55:14.076Z,1.70
2022-09-02T20:58:16.300Z,1.70
2022-09-02T21:01:02.001Z,2.20
2022-09-02T21:03:47.577Z,1.87
2022-09-02T21:06:15.945Z,1.80
2022-09-02T21:08:57.049Z,1.90
2022-09-02T21:11:24.444Z,1.90
2022-09-02T21:14:11.674Z,1.60
2022-09-02T21:16:39.429Z,1.63
2022-09-02T21:19:17.920Z,1.60
2022-09-02T21:21:50.851Z,2.00
2022-09-02T21:24:23.920Z,1.60
2022-09-02T21:26:55.682Z,1.70
2022-09-02T21:29:28.303Z,1.53
2022-09-02T21:31:55.308Z,1.67
2022-09-02T21:34:33.815Z,1.60
2022-09-02T21:37:06.041Z,1.53
2022-09-02T21:39:34.899Z,1.60
2022-09-02T21:42:17.249Z,1.60
2022-09-02T21:44:44.068Z,1.47
2022-09-02T21:47:22.170Z,1.73
2022-09-02T21:50:02.180Z,1.60
2022-09-02T21:52:47.446Z,1.50
2022-09-02T21:55:26.652Z,1.80
2022-09-02T21:57:57.574Z,1.67
2022-09-02T22:00:24.613Z,1.70
2022-09-02T22:03:12.794Z,1.43
2022-09-02T22:05:51.686Z,1.63
2022-09-02T22:08:18.641Z,1.50
2022-09-02T22:10:50.454Z,1.43
2022-09-02T22:13:17.263Z,1.40
2022-09-02T22:16:10.036Z,1.67
2022-09-02T22:18:38.146Z,2.03
2022-09-02T22:21:25.447Z,1.60
2022-09-02T22:23:54.494Z,1.63
2022-09-02T22:26:32.254Z,1.47
2022-09-02T22:29:03.718Z,1.67
2022-09-02T22:31:30.904Z,1.57
2022-09-02T22:33:58.978Z,2.20
2022-09-02T22:36:48.984Z,1.77
2022-09-02T22:39:17.072Z,1.70
2022-09-02T22:41:44.001Z,2.40
2022-09-02T22:44:15.129Z,1.97
2022-09-02T22:47:03.941Z,1.67
2022-09-02T22:49:50.042Z,1.90
2022-09-02T22:52:44.828Z,2.00
2022-09-02T22:55:12.618Z,2.47
2022-09-02T22:57:39.400Z,2.27
2022-09-02T23:00:09.710Z,2.50
2022-09-02T23:02:47.663Z,2.10
2022-09-02T23:05:44.730Z,2.37
2022-09-02T23:08:13.242Z,1.90
2022-09-02T23:10:42.653Z,2.07
2022-09-02T23:13:32.585Z,2.10
2022-09-02T23:16:00.440Z,2.00
2022-09-02T23:18:33.713Z,2.60
2022-09-02T23:21:07.443Z,2.17
2022-09-02T23:23:39.064Z,2.30
2022-09-02T23:26:10.035Z,2.20
2022-09-02T23:28:42.969Z,2.70
2022-09-02T23:31:45.135Z,2.30
2022-09-02T23:34:11.977Z,2.30
2022-09-02T23:36:57.697Z,2.50
2022-09-02T23:39:34.562Z,2.00
2022-09-02T23:42:01.416Z,2.10
2022-09-02T23:44:29.672Z,2.30
2022-09-02T23:47:03.493Z,2.13
2022-09-02T23:49:30.307Z,2.10
2022-09-02T23:52:03.091Z,2.20
2022-09-02T23:54:36.039Z,2.13
2022-09-02T23:57:21.595Z,1.90
2022-09-02T23:59:48.399Z,1.90
